createdAt,value
2017-09-10T00:00:20.621Z,11.50
2017-09-10T00:02:49.018Z,11.40
2017-09-10T00:05:17.452Z,11.40
2017-09-10T00:07:45.850Z,11.40
2017-09-10T00:10:14.239Z,11.40
2017-09-10T00:12:42.614Z,11.40
2017-09-10T00:15:11.022Z,11.30
2017-09-10T00:17:40.169Z,11.30
2017-09-10T00:20:08.541Z,11.30
2017-09-10T00:22:36.934Z,11.30
2017-09-10T00:25:05.305Z,11.30
2017-09-10T00:27:33.678Z,11.30
2017-09-10T00:30:02.058Z,11.30
2017-09-10T00:32:30.245Z,11.20
2017-09-10T00:34:58.660Z,11.10
2017-09-10T00:37:27.801Z,11.10
2017-09-10T00:39:56.179Z,11.00
2017-09-10T00:42:24.221Z,11.00
2017-09-10T00:44:52.591Z,10.90
2017-09-10T00:47:21.743Z,10.80
2017-09-10T00:49:50.881Z,10.80
2017-09-10T00:52:19.335Z,10.80
2017-09-10T00:54:47.729Z,10.80
2017-09-10T00:57:16.872Z,10.70
2017-09-10T00:59:45.266Z,10.70
2017-09-10T01:02:13.657Z,10.70
2017-09-10T01:04:42.037Z,10.70
2017-09-10T01:07:10.425Z,10.60
2017-09-10T01:09:38.796Z,10.60
2017-09-10T01:12:07.209Z,10.50
2017-09-10T01:14:36.349Z,10.50
2017-09-10T01:17:04.725Z,10.50
2017-09-10T01:19:32.436Z,10.50
2017-09-10T01:22:01.230Z,10.50
2017-09-10T01:24:30.216Z,10.50
2017-09-10T01:26:59.358Z,10.40
2017-09-10T01:29:27.726Z,10.40
2017-09-10T01:31:56.133Z,10.40
2017-09-10T01:34:24.516Z,10.30
2017-09-10T01:36:52.916Z,10.30
2017-09-10T01:39:21.303Z,10.20
2017-09-10T01:41:49.688Z,10.20
2017-09-10T01:44:18.849Z,10.10
2017-09-10T01:46:47.225Z,10.10
2017-09-10T01:49:15.618Z,10.10
2017-09-10T01:51:43.991Z,10.10
2017-09-10T01:54:12.362Z,10.10
2017-09-10T01:56:40.752Z,10.20
2017-09-10T01:59:09.126Z,10.20
2017-09-10T02:01:37.517Z,10.20
2017-09-10T02:04:06.660Z,10.10
2017-09-10T02:06:35.034Z,10.10
2017-09-10T02:09:03.100Z,10.10
2017-09-10T02:11:31.473Z,10.10
2017-09-10T02:13:59.931Z,10.00
2017-09-10T02:16:29.078Z,10.10
2017-09-10T02:18:57.466Z,10.10
2017-09-10T02:21:25.846Z,10.10
2017-09-10T02:23:54.216Z,10.20
2017-09-10T02:26:22.606Z,10.20
2017-09-10T02:28:50.990Z,10.20
2017-09-10T02:31:19.362Z,10.20
2017-09-10T02:33:47.745Z,10.20
2017-09-10T02:36:16.117Z,10.20
2017-09-10T02:38:44.517Z,10.10
2017-09-10T02:41:13.652Z,10.10
2017-09-10T02:43:42.041Z,10.10
2017-09-10T02:46:10.444Z,10.10
2017-09-10T02:48:38.818Z,10.10
2017-09-10T02:51:07.988Z,10.10
2017-09-10T02:53:36.362Z,10.10
2017-09-10T02:56:04.791Z,10.10
2017-09-10T02:58:33.178Z,10.10
2017-09-10T03:01:01.549Z,10.00
2017-09-10T03:03:29.945Z,10.00
2017-09-10T03:05:59.084Z,10.00
2017-09-10T03:08:27.454Z,10.00
2017-09-10T03:10:55.834Z,10.00
2017-09-10T03:13:24.220Z,10.00
2017-09-10T03:15:52.609Z,9.90
2017-09-10T03:18:20.981Z,9.90
2017-09-10T03:20:49.350Z,9.90
2017-09-10T03:23:17.733Z,9.80
2017-09-10T03:25:46.105Z,9.80
2017-09-10T03:28:14.489Z,9.80
2017-09-10T03:30:42.861Z,9.80
2017-09-10T03:33:11.237Z,9.80
2017-09-10T03:35:39.620Z,9.80
2017-09-10T03:38:07.999Z,9.80
2017-09-10T03:40:36.394Z,9.80
2017-09-10T03:43:04.763Z,9.70
2017-09-10T03:45:32.942Z,9.70
2017-09-10T03:48:01.333Z,9.70
2017-09-10T03:50:29.513Z,9.70
2017-09-10T03:52:57.906Z,9.70
2017-09-10T03:55:26.298Z,9.70
2017-09-10T03:57:54.708Z,9.70
2017-09-10T04:00:23.091Z,9.70
2017-09-10T04:02:51.465Z,9.70
2017-09-10T04:05:19.665Z,9.70
2017-09-10T04:07:48.308Z,9.70
2017-09-10T04:10:16.498Z,9.70
2017-09-10T04:12:44.880Z,9.60
2017-09-10T04:15:13.061Z,9.70
2017-09-10T04:17:41.458Z,9.70
2017-09-10T04:20:09.843Z,9.80
2017-09-10T04:22:37.870Z,9.80
2017-09-10T04:25:06.245Z,9.90
2017-09-10T04:27:34.609Z,9.80
2017-09-10T04:30:03.014Z,9.80
2017-09-10T04:32:30.688Z,9.80
2017-09-10T04:34:59.059Z,9.70
2017-09-10T04:37:27.441Z,9.70
2017-09-10T04:39:55.822Z,9.60
2017-09-10T04:42:24.217Z,9.60
2017-09-10T04:44:52.583Z,9.60
2017-09-10T04:47:20.767Z,9.70
2017-09-10T04:49:49.154Z,9.70
2017-09-10T04:52:17.530Z,9.70
2017-09-10T04:54:45.929Z,9.70
2017-09-10T04:57:15.068Z,9.70
2017-09-10T04:59:43.440Z,9.70
2017-09-10T05:02:11.476Z,9.70
2017-09-10T05:04:40.626Z,9.70
2017-09-10T05:07:09.013Z,9.60
2017-09-10T05:09:37.385Z,9.70
2017-09-10T05:12:05.765Z,9.60
2017-09-10T05:14:34.151Z,9.60
2017-09-10T05:17:02.526Z,9.60
2017-09-10T05:19:31.130Z,9.60
2017-09-10T05:21:59.593Z,9.60
2017-09-10T05:24:27.956Z,9.60
2017-09-10T05:26:57.061Z,9.70
2017-09-10T05:29:25.432Z,9.70
2017-09-10T05:31:53.499Z,9.70
2017-09-10T05:34:21.523Z,9.70
2017-09-10T05:36:50.672Z,9.80
2017-09-10T05:39:19.149Z,9.80
2017-09-10T05:41:47.551Z,9.90
2017-09-10T05:44:16.705Z,9.90
2017-09-10T05:46:45.122Z,9.90
2017-09-10T05:49:14.253Z,9.90
2017-09-10T05:51:43.409Z,10.00
2017-09-10T05:54:11.828Z,10.00
2017-09-10T05:56:41.026Z,10.30
2017-09-10T05:59:09.409Z,10.30
2017-09-10T06:01:38.544Z,10.50
2017-09-10T06:04:06.946Z,10.50
2017-09-10T06:06:35.565Z,10.70
2017-09-10T06:09:03.456Z,10.70
2017-09-10T06:11:31.835Z,10.90
2017-09-10T06:14:00.209Z,11.00
2017-09-10T06:16:28.478Z,11.00
2017-09-10T06:18:56.677Z,11.20
2017-09-10T06:21:24.894Z,11.40
2017-09-10T06:23:54.097Z,11.60
2017-09-10T06:26:23.236Z,11.70
2017-09-10T06:28:51.635Z,11.70
2017-09-10T06:31:20.021Z,11.90
2017-09-10T06:33:48.417Z,12.00
2017-09-10T06:36:16.803Z,12.10
2017-09-10T06:38:45.944Z,12.20
2017-09-10T06:41:14.337Z,12.10
2017-09-10T06:43:42.713Z,12.30
2017-09-10T06:46:11.101Z,12.40
2017-09-10T06:48:39.473Z,12.50
2017-09-10T06:51:07.846Z,12.60
2017-09-10T06:53:36.267Z,12.70
2017-09-10T06:56:04.871Z,12.90
2017-09-10T06:58:34.047Z,13.10
2017-09-10T07:01:02.426Z,13.10
2017-09-10T07:03:30.802Z,13.30
2017-09-10T07:05:59.437Z,13.50
2017-09-10T07:08:27.817Z,13.60
2017-09-10T07:10:56.221Z,13.80
2017-09-10T07:13:24.602Z,13.90
2017-09-10T07:15:52.990Z,14.00
2017-09-10T07:18:21.371Z,14.20
2017-09-10T07:20:49.741Z,14.30
2017-09-10T07:23:18.141Z,14.40
2017-09-10T07:25:47.281Z,14.70
2017-09-10T07:28:15.674Z,14.70
2017-09-10T07:30:45.506Z,15.00
2017-09-10T07:33:14.083Z,15.00
2017-09-10T07:35:42.481Z,15.20
2017-09-10T07:38:10.869Z,15.20
2017-09-10T07:40:40.021Z,15.30
2017-09-10T07:43:08.367Z,15.30
2017-09-10T07:45:36.766Z,15.30
2017-09-10T07:48:05.159Z,15.20
2017-09-10T07:50:33.533Z,15.20
2017-09-10T07:53:01.914Z,15.20
2017-09-10T07:55:30.304Z,15.10
2017-09-10T07:57:58.682Z,15.00
2017-09-10T08:00:27.877Z,15.10
2017-09-10T08:02:56.315Z,15.10
2017-09-10T08:05:24.807Z,15.30
2017-09-10T08:07:53.191Z,15.60
2017-09-10T08:10:21.585Z,15.80
2017-09-10T08:12:49.969Z,16.00
2017-09-10T08:15:18.341Z,16.00
2017-09-10T08:17:46.770Z,16.10
2017-09-10T08:20:15.733Z,16.20
2017-09-10T08:22:44.102Z,16.20
2017-09-10T08:25:12.473Z,16.30
2017-09-10T08:27:40.868Z,16.20
2017-09-10T08:30:09.229Z,16.40
2017-09-10T08:32:37.618Z,16.50
2017-09-10T08:35:06.069Z,16.40
2017-09-10T08:37:34.264Z,16.40
2017-09-10T08:40:02.654Z,16.40
2017-09-10T08:42:31.057Z,16.10
2017-09-10T08:45:02.255Z,16.30
2017-09-10T08:47:30.662Z,16.30
2017-09-10T08:49:59.038Z,16.40
2017-09-10T08:52:28.130Z,16.40
2017-09-10T08:54:56.513Z,16.60
2017-09-10T08:57:25.682Z,16.50
2017-09-10T08:59:54.050Z,16.50
2017-09-10T09:02:22.469Z,16.50
2017-09-10T09:04:50.856Z,16.60
2017-09-10T09:07:20.009Z,16.40
2017-09-10T09:09:48.409Z,16.30
2017-09-10T09:12:16.790Z,16.40
2017-09-10T09:14:45.167Z,16.40
2017-09-10T09:17:13.572Z,16.30
2017-09-10T09:19:41.957Z,16.40
2017-09-10T09:22:11.182Z,16.60
2017-09-10T09:24:39.579Z,16.60
2017-09-10T09:27:07.960Z,16.70
2017-09-10T09:29:36.364Z,16.60
2017-09-10T09:32:04.741Z,16.60
2017-09-10T09:34:33.913Z,16.80
2017-09-10T09:37:02.394Z,16.80
2017-09-10T09:39:30.834Z,17.00
2017-09-10T09:41:59.221Z,17.00
2017-09-10T09:44:27.617Z,17.00
2017-09-10T09:46:56.029Z,16.90
2017-09-10T09:49:24.426Z,16.90
2017-09-10T09:51:52.640Z,17.00
2017-09-10T09:54:21.244Z,17.30
2017-09-10T09:56:49.616Z,17.30
2017-09-10T09:59:18.010Z,17.40
2017-09-10T10:01:46.391Z,17.70
2017-09-10T10:04:14.768Z,17.80
2017-09-10T10:06:43.157Z,17.80
2017-09-10T10:09:12.297Z,17.90
2017-09-10T10:11:41.485Z,17.80
2017-09-10T10:14:10.631Z,17.70
2017-09-10T10:16:39.061Z,17.70
2017-09-10T10:19:08.226Z,17.10
2017-09-10T10:21:36.474Z,17.10
2017-09-10T10:24:04.674Z,17.20
2017-09-10T10:26:33.053Z,17.40
2017-09-10T10:29:01.473Z,17.60
2017-09-10T10:31:29.869Z,17.60
2017-09-10T10:33:58.239Z,17.40
2017-09-10T10:36:26.626Z,17.30
2017-09-10T10:38:57.553Z,17.30
2017-09-10T10:41:26.713Z,17.50
2017-09-10T10:43:55.185Z,17.50
2017-09-10T10:46:23.548Z,17.70
2017-09-10T10:48:51.933Z,18.00
2017-09-10T10:51:20.322Z,18.20
2017-09-10T10:53:48.710Z,18.10
2017-09-10T10:56:17.089Z,17.90
2017-09-10T10:58:46.224Z,17.40
2017-09-10T11:01:14.603Z,17.30
2017-09-10T11:03:43.084Z,17.20
2017-09-10T11:06:11.480Z,17.30
2017-09-10T11:08:39.845Z,17.10
2017-09-10T11:11:08.222Z,16.80
2017-09-10T11:13:36.637Z,16.50
2017-09-10T11:16:05.009Z,16.30
2017-09-10T11:18:33.404Z,16.40
2017-09-10T11:21:01.773Z,16.50
2017-09-10T11:23:30.149Z,16.20
2017-09-10T11:25:58.530Z,16.30
2017-09-10T11:28:27.002Z,16.30
2017-09-10T11:30:55.429Z,16.40
2017-09-10T11:33:23.854Z,16.50
2017-09-10T11:35:52.233Z,16.60
2017-09-10T11:38:20.633Z,16.60
2017-09-10T11:40:49.009Z,16.60
2017-09-10T11:43:17.402Z,16.80
2017-09-10T11:45:45.801Z,17.00
2017-09-10T11:48:14.194Z,17.00
2017-09-10T11:50:42.582Z,17.20
2017-09-10T11:53:10.992Z,17.40
2017-09-10T11:55:39.405Z,17.40
2017-09-10T11:58:07.810Z,17.50
2017-09-10T12:00:36.194Z,17.50
2017-09-10T12:03:04.595Z,17.40
2017-09-10T12:05:32.790Z,17.50
2017-09-10T12:08:01.177Z,17.70
2017-09-10T12:10:30.321Z,18.50
2017-09-10T12:12:58.794Z,18.50
2017-09-10T12:15:27.176Z,18.70
2017-09-10T12:17:55.586Z,18.80
2017-09-10T12:20:23.982Z,18.90
2017-09-10T12:22:52.341Z,18.80
2017-09-10T12:25:20.729Z,18.60
2017-09-10T12:27:49.117Z,18.10
2017-09-10T12:30:18.255Z,17.60
2017-09-10T12:32:46.647Z,17.60
2017-09-10T12:35:15.026Z,18.10
2017-09-10T12:37:43.406Z,18.40
2017-09-10T12:40:11.807Z,18.30
2017-09-10T12:42:40.205Z,17.80
2017-09-10T12:45:09.365Z,18.20
2017-09-10T12:47:37.738Z,18.20
2017-09-10T12:50:06.149Z,18.50
2017-09-10T12:52:34.526Z,18.40
2017-09-10T12:55:02.900Z,18.20
2017-09-10T12:57:31.353Z,18.50
2017-09-10T12:59:59.757Z,18.70
2017-09-10T13:02:28.137Z,18.70
2017-09-10T13:04:56.530Z,18.70
2017-09-10T13:07:25.662Z,18.50
2017-09-10T13:09:54.073Z,18.50
2017-09-10T13:12:22.468Z,18.50
2017-09-10T13:14:50.904Z,18.10
2017-09-10T13:17:19.292Z,18.00
2017-09-10T13:19:47.669Z,17.60
2017-09-10T13:22:16.073Z,17.20
2017-09-10T13:24:44.452Z,17.00
2017-09-10T13:27:12.847Z,17.00
2017-09-10T13:29:41.221Z,17.10
2017-09-10T13:32:09.594Z,17.40
2017-09-10T13:34:37.997Z,17.30
2017-09-10T13:37:06.378Z,17.10
2017-09-10T13:39:35.529Z,17.20
2017-09-10T13:42:03.914Z,17.20
2017-09-10T13:44:32.097Z,17.10
2017-09-10T13:47:00.493Z,17.40
2017-09-10T13:49:28.874Z,17.60
2017-09-10T13:51:58.057Z,17.60
2017-09-10T13:54:27.226Z,17.70
2017-09-10T13:56:55.417Z,17.70
2017-09-10T13:59:23.812Z,17.70
2017-09-10T14:01:52.965Z,17.70
2017-09-10T14:04:21.343Z,17.70
2017-09-10T14:06:49.731Z,17.60
2017-09-10T14:09:18.073Z,17.30
2017-09-10T14:11:46.482Z,17.30
2017-09-10T14:14:14.865Z,17.20
2017-09-10T14:16:43.234Z,17.00
2017-09-10T14:19:11.613Z,16.90
2017-09-10T14:21:39.991Z,16.90
2017-09-10T14:24:08.413Z,17.10
2017-09-10T14:26:37.554Z,17.10
2017-09-10T14:29:05.928Z,17.10
2017-09-10T14:31:34.307Z,17.00
2017-09-10T14:34:02.789Z,16.80
2017-09-10T14:36:31.221Z,16.80
2017-09-10T14:39:00.367Z,16.50
2017-09-10T14:41:28.842Z,16.60
2017-09-10T14:43:57.241Z,16.50
2017-09-10T14:46:25.614Z,16.50
2017-09-10T14:48:54.019Z,16.50
2017-09-10T14:51:22.393Z,16.60
2017-09-10T14:53:50.773Z,16.70
2017-09-10T14:56:19.201Z,16.50
2017-09-10T14:58:48.346Z,16.50
2017-09-10T15:01:16.738Z,16.50
2017-09-10T15:03:45.119Z,16.50
2017-09-10T15:06:13.488Z,16.40
2017-09-10T15:08:41.879Z,16.40
2017-09-10T15:11:11.014Z,16.30
2017-09-10T15:13:39.413Z,16.30
2017-09-10T15:16:07.800Z,16.20
2017-09-10T15:18:36.169Z,16.20
2017-09-10T15:21:04.573Z,16.30
2017-09-10T15:23:32.965Z,16.40
2017-09-10T15:26:02.148Z,16.60
2017-09-10T15:28:30.539Z,16.60
2017-09-10T15:30:59.494Z,16.50
2017-09-10T15:33:27.690Z,16.50
2017-09-10T15:35:56.069Z,16.50
2017-09-10T15:38:24.456Z,16.50
2017-09-10T15:40:52.833Z,16.40
2017-09-10T15:43:22.021Z,16.40
2017-09-10T15:45:51.405Z,16.40
2017-09-10T15:48:19.806Z,16.40
2017-09-10T15:50:48.966Z,16.30
2017-09-10T15:53:17.392Z,16.30
2017-09-10T15:55:46.389Z,15.90
2017-09-10T15:58:15.575Z,15.70
2017-09-10T16:00:44.009Z,15.70
2017-09-10T16:03:12.388Z,15.70
2017-09-10T16:05:40.775Z,15.60
2017-09-10T16:08:09.145Z,15.40
2017-09-10T16:10:37.561Z,15.40
2017-09-10T16:13:05.958Z,15.30
2017-09-10T16:15:35.106Z,15.10
2017-09-10T16:18:03.498Z,15.10
2017-09-10T16:20:31.877Z,15.10
2017-09-10T16:23:00.292Z,15.00
2017-09-10T16:25:28.661Z,15.10
2017-09-10T16:27:57.150Z,15.10
2017-09-10T16:30:25.578Z,15.10
2017-09-10T16:32:53.773Z,15.00
2017-09-10T16:35:22.009Z,15.00
2017-09-10T16:37:50.378Z,15.10
2017-09-10T16:40:18.746Z,15.00
2017-09-10T16:42:47.762Z,15.00
2017-09-10T16:45:16.150Z,15.00
2017-09-10T16:47:44.576Z,15.00
2017-09-10T16:50:14.169Z,14.90
2017-09-10T16:52:43.372Z,14.90
2017-09-10T16:55:12.612Z,14.80
2017-09-10T16:57:41.035Z,14.80
2017-09-10T17:00:10.199Z,14.60
2017-09-10T17:02:38.606Z,14.60
2017-09-10T17:05:07.020Z,14.60
2017-09-10T17:07:35.413Z,14.50
2017-09-10T17:10:03.816Z,14.50
2017-09-10T17:12:32.292Z,14.40
2017-09-10T17:15:00.833Z,14.30
2017-09-10T17:17:30.548Z,14.20
2017-09-10T17:19:59.881Z,14.20
2017-09-10T17:22:28.619Z,14.20
2017-09-10T17:24:57.105Z,14.10
2017-09-10T17:27:26.322Z,14.00
2017-09-10T17:29:54.699Z,14.00
2017-09-10T17:32:23.139Z,14.00
2017-09-10T17:34:51.534Z,14.00
2017-09-10T17:37:20.728Z,13.90
2017-09-10T17:39:49.129Z,13.90
2017-09-10T17:42:17.558Z,13.90
2017-09-10T17:44:46.180Z,13.80
2017-09-10T17:47:15.348Z,13.80
2017-09-10T17:49:43.797Z,13.80
2017-09-10T17:52:12.184Z,13.80
2017-09-10T17:54:40.585Z,13.70
2017-09-10T17:57:09.093Z,13.70
2017-09-10T17:59:38.446Z,13.60
2017-09-10T18:02:06.853Z,13.60
2017-09-10T18:04:35.240Z,13.60
2017-09-10T18:07:04.539Z,13.50
2017-09-10T18:09:33.789Z,13.50
2017-09-10T18:12:02.634Z,13.50
2017-09-10T18:14:31.807Z,13.50
2017-09-10T18:17:00.191Z,13.50
2017-09-10T18:19:28.399Z,13.60
2017-09-10T18:21:59.806Z,13.50
2017-09-10T18:24:29.183Z,13.50
2017-09-10T18:26:57.594Z,13.50
2017-09-10T18:29:25.886Z,13.40
2017-09-10T18:31:54.140Z,13.40
2017-09-10T18:34:22.354Z,13.40
2017-09-10T18:36:50.783Z,13.40
2017-09-10T18:39:19.210Z,13.30
2017-09-10T18:41:48.358Z,13.30
2017-09-10T18:44:16.776Z,13.30
2017-09-10T18:46:45.191Z,13.30
2017-09-10T18:49:13.565Z,13.30
2017-09-10T18:51:41.993Z,13.30
2017-09-10T18:54:10.389Z,13.20
2017-09-10T18:56:39.454Z,13.20
2017-09-10T18:59:08.532Z,13.20
2017-09-10T19:01:36.930Z,13.20
2017-09-10T19:04:05.141Z,13.20
2017-09-10T19:06:33.535Z,13.20
2017-09-10T19:09:01.909Z,13.20
2017-09-10T19:11:30.325Z,13.20
2017-09-10T19:13:58.697Z,13.20
2017-09-10T19:16:27.115Z,13.20
2017-09-10T19:18:56.073Z,13.20
2017-09-10T19:21:24.455Z,13.20
2017-09-10T19:23:52.841Z,13.20
2017-09-10T19:26:21.226Z,13.20
2017-09-10T19:28:49.627Z,13.20
2017-09-10T19:31:18.762Z,13.20
2017-09-10T19:33:47.166Z,13.20
2017-09-10T19:36:15.581Z,13.20
2017-09-10T19:38:43.976Z,13.20
2017-09-10T19:41:12.391Z,13.20
2017-09-10T19:43:40.877Z,13.20
2017-09-10T19:46:09.069Z,13.20
2017-09-10T19:48:37.538Z,13.20
2017-09-10T19:51:05.753Z,13.10
2017-09-10T19:53:34.154Z,13.20
2017-09-10T19:56:02.550Z,13.10
2017-09-10T19:58:30.963Z,13.20
2017-09-10T20:00:59.374Z,13.20
2017-09-10T20:03:27.746Z,13.20
2017-09-10T20:05:56.142Z,13.20
2017-09-10T20:08:24.521Z,13.20
2017-09-10T20:10:52.967Z,13.20
2017-09-10T20:13:22.193Z,13.20
2017-09-10T20:15:50.458Z,13.20
2017-09-10T20:18:18.888Z,13.30
2017-09-10T20:20:47.093Z,13.20
2017-09-10T20:23:16.137Z,13.20
2017-09-10T20:25:44.526Z,13.20
2017-09-10T20:28:13.266Z,13.20
2017-09-10T20:30:41.673Z,13.20
2017-09-10T20:33:10.059Z,13.30
2017-09-10T20:35:38.487Z,13.30
2017-09-10T20:38:06.890Z,13.30
2017-09-10T20:40:35.349Z,13.30
2017-09-10T20:43:03.782Z,13.30
2017-09-10T20:45:31.965Z,13.30
2017-09-10T20:48:00.389Z,13.30
2017-09-10T20:50:29.397Z,13.40
2017-09-10T20:52:57.871Z,13.30
2017-09-10T20:55:26.403Z,13.40
2017-09-10T20:57:54.789Z,13.40
2017-09-10T21:00:24.127Z,13.40
2017-09-10T21:02:52.661Z,13.40
2017-09-10T21:05:21.047Z,13.40
2017-09-10T21:07:50.533Z,13.40
2017-09-10T21:10:18.914Z,13.50
2017-09-10T21:12:47.535Z,13.50
2017-09-10T21:15:17.748Z,13.60
2017-09-10T21:17:46.228Z,13.60
2017-09-10T21:20:14.675Z,13.60
2017-09-10T21:22:43.118Z,13.70
2017-09-10T21:25:11.526Z,13.70
2017-09-10T21:27:40.038Z,13.70
2017-09-10T21:30:08.429Z,13.80
2017-09-10T21:32:36.960Z,13.80
2017-09-10T21:35:05.376Z,13.80
2017-09-10T21:37:33.872Z,13.70
2017-09-10T21:40:03.030Z,13.70
2017-09-10T21:42:31.402Z,13.70
2017-09-10T21:44:59.799Z,13.70
2017-09-10T21:47:28.180Z,13.70
2017-09-10T21:49:56.360Z,13.80
2017-09-10T21:52:24.742Z,13.80
2017-09-10T21:54:53.117Z,13.80
2017-09-10T21:57:22.285Z,13.80
2017-09-10T21:59:50.666Z,13.80
2017-09-10T22:02:19.054Z,13.80
2017-09-10T22:04:47.437Z,13.90
2017-09-10T22:07:15.817Z,13.90
2017-09-10T22:09:44.222Z,13.90
2017-09-10T22:12:13.372Z,13.90
2017-09-10T22:14:41.781Z,13.90
2017-09-10T22:17:10.169Z,13.90
2017-09-10T22:19:38.561Z,14.00
2017-09-10T22:22:07.729Z,14.00
2017-09-10T22:24:36.113Z,14.10
2017-09-10T22:27:04.497Z,14.10
2017-09-10T22:29:32.880Z,14.10
2017-09-10T22:32:01.254Z,14.10
2017-09-10T22:34:29.461Z,14.10
2017-09-10T22:36:58.606Z,14.10
2017-09-10T22:39:26.981Z,14.10
2017-09-10T22:41:55.377Z,14.20
2017-09-10T22:44:23.749Z,14.20
2017-09-10T22:46:52.146Z,14.20
2017-09-10T22:49:19.989Z,14.20
2017-09-10T22:51:48.374Z,14.20
2017-09-10T22:54:16.812Z,14.20
2017-09-10T22:56:45.194Z,14.20
2017-09-10T22:59:13.594Z,14.20
2017-09-10T23:01:41.971Z,14.20
2017-09-10T23:04:10.346Z,14.20
2017-09-10T23:06:38.742Z,14.20
2017-09-10T23:09:07.121Z,14.20
2017-09-10T23:11:35.505Z,14.10
2017-09-10T23:14:03.881Z,14.10
2017-09-10T23:16:32.261Z,14.10
2017-09-10T23:19:00.658Z,14.10
2017-09-10T23:21:29.045Z,14.10
2017-09-10T23:23:58.186Z,14.20
2017-09-10T23:26:26.621Z,14.20
2017-09-10T23:28:55.005Z,14.20
2017-09-10T23:31:23.407Z,14.20
2017-09-10T23:33:51.792Z,14.20
2017-09-10T23:36:19.978Z,14.20
2017-09-10T23:38:48.174Z,14.30
2017-09-10T23:41:16.548Z,14.30
2017-09-10T23:43:44.937Z,14.30
2017-09-10T23:46:13.305Z,14.20
2017-09-10T23:48:41.693Z,14.10
2017-09-10T23:51:10.118Z,13.90
2017-09-10T23:53:38.610Z,13.70
2017-09-10T23:56:06.977Z,13.60
2017-09-10T23:58:35.022Z,13.50
